createdAt,value
2023-02-11T00:00:23.983Z,102553.94
2023-02-11T00:06:54.930Z,102535.16
2023-02-11T00:10:11.959Z,102539.78
2023-02-11T00:13:13.932Z,102544.84
2023-02-11T00:16:30.038Z,102536.28
2023-02-11T00:19:45.004Z,102528.59
2023-02-11T00:22:53.646Z,102514.41
2023-02-11T00:26:11.981Z,102521.44
2023-02-11T00:29:14.950Z,102510.94
2023-02-11T00:32:30.181Z,102497.09
2023-02-11T00:35:39.068Z,102511.28
2023-02-11T00:38:49.196Z,102524.13
2023-02-11T00:42:04.984Z,102506.72
2023-02-11T00:45:16.326Z,102520.91
2023-02-11T00:48:25.122Z,102523.41
2023-02-11T00:51:40.009Z,102525.34
2023-02-11T00:54:42.429Z,102523.56
2023-02-11T00:57:57.931Z,102518.25
2023-02-11T01:01:00.153Z,102514.41
2023-02-11T01:04:15.018Z,102508.31
2023-02-11T01:07:16.939Z,102496.12
2023-02-11T01:10:32.008Z,102481.31
2023-02-11T01:13:41.950Z,102490.81
2023-02-11T01:16:57.017Z,102486.63
2023-02-11T01:20:08.749Z,102482.34
2023-02-11T01:23:23.992Z,102476.25
2023-02-11T01:26:33.059Z,102469.41
2023-02-11T01:29:48.010Z,102461.28
2023-02-11T01:32:57.964Z,102465.41
2023-02-11T01:36:08.254Z,102454.66
2023-02-11T01:39:20.205Z,102446.97
2023-02-11T01:42:37.998Z,102455.78
2023-02-11T01:46:02.912Z,102433.84
2023-02-11T01:49:16.002Z,102454.63
2023-02-11T01:52:44.803Z,102459.09
2023-02-11T01:55:55.514Z,102458.25
2023-02-11T01:59:12.940Z,102456.56
2023-02-11T02:02:28.948Z,102447.78
2023-02-11T02:05:45.998Z,102446.94
2023-02-11T02:09:07.949Z,102452.31
2023-02-11T02:12:16.901Z,102448.25
2023-02-11T02:15:29.468Z,102455.06
2023-02-11T02:18:54.912Z,102448.75
2023-02-11T02:22:36.994Z,102445.31
2023-02-11T02:26:13.345Z,102445.19
2023-02-11T02:29:38.984Z,102433.31
2023-02-11T02:33:22.502Z,102443.09
2023-02-11T02:36:42.565Z,102443.03
2023-02-11T02:39:56.964Z,102433.91
2023-02-11T02:43:07.817Z,102428.50
2023-02-11T02:46:29.124Z,102432.91
2023-02-11T02:49:43.921Z,102426.16
2023-02-11T02:53:13.213Z,102428.12
2023-02-11T02:56:44.060Z,102433.06
2023-02-11T03:00:16.968Z,102432.41
2023-02-11T03:03:41.256Z,102430.84
2023-02-11T03:07:07.006Z,102425.53
2023-02-11T03:10:22.990Z,102429.31
2023-02-11T03:13:35.155Z,102427.59
2023-02-11T03:16:51.973Z,102410.25
2023-02-11T03:20:03.442Z,102419.91
2023-02-11T03:23:25.975Z,102420.78
2023-02-11T03:26:38.057Z,102418.03
2023-02-11T03:30:07.947Z,102404.91
2023-02-11T03:33:30.038Z,102405.72
2023-02-11T03:36:45.349Z,102404.81
2023-02-11T03:40:06.986Z,102399.66
2023-02-11T03:43:20.938Z,102397.94
2023-02-11T03:46:41.080Z,102392.81
2023-02-11T03:49:52.972Z,102383.16
2023-02-11T03:53:03.745Z,102382.09
2023-02-11T03:56:16.063Z,102376.75
2023-02-11T03:59:25.278Z,102350.66
2023-02-11T04:02:38.983Z,102366.19
2023-02-11T04:05:53.999Z,102354.97
2023-02-11T04:08:56.007Z,102357.47
2023-02-11T04:12:12.082Z,102348.72
2023-02-11T04:15:14.217Z,102350.44
2023-02-11T04:18:29.212Z,102345.31
2023-02-11T04:21:37.324Z,102338.34
2023-02-11T04:24:51.992Z,102340.56
2023-02-11T04:28:07.040Z,102298.19
2023-02-11T04:31:09.137Z,102270.37
2023-02-11T04:34:24.978Z,102332.13
2023-02-11T04:37:33.955Z,102334.78
2023-02-11T04:40:49.002Z,102337.53
2023-02-11T04:43:58.036Z,102341.91
2023-02-11T04:47:06.786Z,102319.44
2023-02-11T04:50:16.009Z,102320.28
2023-02-11T04:53:31.005Z,102336.78
2023-02-11T04:56:46.168Z,102335.91
2023-02-11T04:59:55.599Z,102332.41
2023-02-11T05:03:04.038Z,102338.34
2023-02-11T05:06:20.160Z,102333.28
2023-02-11T05:09:22.559Z,102335.06
2023-02-11T05:12:36.980Z,102336.88
2023-02-11T05:15:38.818Z,102342.34
2023-02-11T05:18:54.170Z,102343.22
2023-02-11T05:22:03.669Z,102347.34
2023-02-11T05:25:19.046Z,102342.75
2023-02-11T05:28:27.165Z,102335.75
2023-02-11T05:31:42.052Z,102342.06
2023-02-11T05:34:50.060Z,102334.25
2023-02-11T05:37:58.718Z,102331.41
2023-02-11T05:41:08.035Z,102327.84
2023-02-11T05:44:23.044Z,102324.41
2023-02-11T05:47:31.154Z,102328.84
2023-02-11T05:50:46.054Z,102316.56
2023-02-11T05:53:48.084Z,102324.63
2023-02-11T05:57:03.096Z,102320.34
2023-02-11T06:00:13.006Z,102325.94
2023-02-11T06:03:28.270Z,102331.09
2023-02-11T06:06:37.186Z,102326.78
2023-02-11T06:09:52.009Z,102329.44
2023-02-11T06:12:54.020Z,102330.22
2023-02-11T06:16:10.243Z,102335.28
2023-02-11T06:19:19.999Z,102315.50
2023-02-11T06:22:42.053Z,102332.75
2023-02-11T06:25:51.374Z,102330.91
2023-02-11T06:29:00.652Z,102317.03
2023-02-11T06:32:23.316Z,102312.66
2023-02-11T06:35:39.486Z,102312.50
2023-02-11T06:38:55.024Z,102315.25
2023-02-11T06:41:57.108Z,102323.06
2023-02-11T06:45:13.456Z,102318.84
2023-02-11T06:48:22.057Z,102314.37
2023-02-11T06:51:31.015Z,102314.28
2023-02-11T06:54:40.082Z,102300.53
2023-02-11T06:57:48.782Z,102312.16
2023-02-11T07:00:57.083Z,102289.06
2023-02-11T07:04:12.043Z,102301.47
2023-02-11T07:07:14.006Z,102305.75
2023-02-11T07:10:29.085Z,102300.66
2023-02-11T07:13:37.044Z,102298.69
2023-02-11T07:16:53.078Z,102295.44
2023-02-11T07:20:02.036Z,102308.91
2023-02-11T07:23:11.027Z,102299.75
2023-02-11T07:26:30.115Z,102301.09
2023-02-11T07:29:39.075Z,102303.44
2023-02-11T07:32:56.084Z,102309.59
2023-02-11T07:36:01.023Z,102301.91
2023-02-11T07:39:16.303Z,102298.19
2023-02-11T07:42:18.291Z,102294.59
2023-02-11T07:45:33.083Z,102275.78
2023-02-11T07:48:48.073Z,102286.25
2023-02-11T07:51:49.979Z,102274.91
2023-02-11T07:55:05.148Z,102271.09
2023-02-11T07:58:20.132Z,102277.44
2023-02-11T08:01:27.714Z,102275.09
2023-02-11T08:04:43.183Z,102272.53
2023-02-11T08:07:45.416Z,102263.31
2023-02-11T08:11:01.064Z,102268.13
2023-02-11T08:14:29.401Z,102211.34
2023-02-11T08:17:45.094Z,102255.38
2023-02-11T08:20:54.047Z,102271.81
2023-02-11T08:24:09.063Z,102264.91
2023-02-11T08:27:17.047Z,102268.22
2023-02-11T08:30:27.768Z,102265.84
2023-02-11T08:33:43.569Z,102267.03
2023-02-11T08:37:09.289Z,102244.78
2023-02-11T08:40:11.524Z,102260.44
2023-02-11T08:43:26.153Z,102267.87
2023-02-11T08:46:28.371Z,102265.69
2023-02-11T08:49:43.075Z,102264.19
2023-02-11T08:52:52.941Z,102245.09
2023-02-11T08:56:08.117Z,102261.75
2023-02-11T08:59:27.105Z,102265.00
2023-02-11T09:02:29.230Z,102270.72
2023-02-11T09:05:49.449Z,102264.94
2023-02-11T09:08:54.321Z,102266.59
2023-02-11T09:12:12.374Z,102266.25
2023-02-11T09:15:14.301Z,102254.47
2023-02-11T09:18:48.480Z,102250.28
2023-02-11T09:22:01.841Z,102250.81
2023-02-11T09:25:18.117Z,102205.34
2023-02-11T09:28:26.134Z,102242.53
2023-02-11T09:31:52.785Z,102245.84
2023-02-11T09:35:10.095Z,102175.22
2023-02-11T09:38:18.132Z,102220.81
2023-02-11T09:41:51.012Z,102227.72
2023-02-11T09:45:00.128Z,102215.31
2023-02-11T09:48:21.085Z,102218.16
2023-02-11T09:51:51.107Z,102217.69
2023-02-11T09:55:11.098Z,102214.81
2023-02-11T09:58:25.779Z,102217.72
2023-02-11T10:02:05.127Z,102209.56
2023-02-11T10:05:40.126Z,102206.53
2023-02-11T10:09:14.189Z,102210.06
2023-02-11T10:12:49.180Z,102205.91
2023-02-11T10:16:23.490Z,102198.38
2023-02-11T10:19:49.122Z,102195.34
2023-02-11T10:23:01.824Z,102184.09
2023-02-11T10:26:19.259Z,102191.25
2023-02-11T10:29:41.373Z,102183.59
2023-02-11T10:33:06.125Z,102175.50
2023-02-11T10:36:24.203Z,102171.25
2023-02-11T10:39:33.496Z,102162.09
2023-02-11T10:42:43.142Z,102162.66
2023-02-11T10:45:53.549Z,102163.09
2023-02-11T10:49:08.165Z,102153.19
2023-02-11T10:52:31.121Z,102146.03
2023-02-11T10:55:33.086Z,102147.94
2023-02-11T10:58:53.122Z,102134.00
2023-02-11T11:02:06.166Z,102135.28
2023-02-11T11:05:19.517Z,102140.28
2023-02-11T11:08:28.183Z,102131.16
2023-02-11T11:11:52.189Z,102124.09
2023-02-11T11:15:20.213Z,102115.28
2023-02-11T11:18:23.466Z,102103.44
2023-02-11T11:21:47.601Z,102098.09
2023-02-11T11:25:02.297Z,102098.50
2023-02-11T11:28:23.474Z,102101.78
2023-02-11T11:31:37.312Z,102094.94
2023-02-11T11:34:58.154Z,102069.97
2023-02-11T11:38:10.261Z,102079.72
2023-02-11T11:41:36.497Z,102079.44
2023-02-11T11:44:57.463Z,102075.50
2023-02-11T11:48:30.192Z,102053.38
2023-02-11T11:51:42.309Z,102050.63
2023-02-11T11:54:57.153Z,102045.47
2023-02-11T11:58:17.192Z,102036.81
2023-02-11T12:01:45.173Z,102045.88
2023-02-11T12:05:16.176Z,102049.28
2023-02-11T12:08:36.770Z,102038.81
2023-02-11T12:12:10.174Z,102029.28
2023-02-11T12:15:30.407Z,102008.88
2023-02-11T12:19:20.228Z,101999.91
2023-02-11T12:22:43.309Z,101989.75
2023-02-11T12:26:18.330Z,101972.44
2023-02-11T12:29:46.206Z,101927.94
2023-02-11T12:33:15.220Z,101963.56
2023-02-11T12:37:10.305Z,101958.91
2023-02-11T12:40:33.805Z,101958.16
2023-02-11T12:43:45.209Z,101948.47
2023-02-11T12:47:09.847Z,101951.19
2023-02-11T12:50:36.610Z,101942.84
2023-02-11T12:54:07.235Z,101950.03
2023-02-11T12:57:23.105Z,101942.50
2023-02-11T13:01:00.822Z,101945.22
2023-02-11T13:04:29.861Z,101922.59
2023-02-11T13:07:51.205Z,101928.44
2023-02-11T13:11:13.915Z,101928.34
2023-02-11T13:14:36.230Z,101928.16
2023-02-11T13:18:08.171Z,101924.63
2023-02-11T13:21:54.270Z,101907.84
2023-02-11T13:25:32.551Z,101916.25
2023-02-11T13:29:06.680Z,101904.28
2023-02-11T13:32:22.193Z,101892.41
2023-02-11T13:35:44.429Z,101872.69
2023-02-11T13:39:04.398Z,101889.50
2023-02-11T13:42:16.404Z,101892.88
2023-02-11T13:45:36.455Z,101893.81
2023-02-11T13:48:48.721Z,101888.72
2023-02-11T13:52:05.373Z,101890.81
2023-02-11T13:55:29.312Z,101888.88
2023-02-11T13:58:48.521Z,101887.91
2023-02-11T14:02:34.285Z,101889.16
2023-02-11T14:06:15.398Z,101899.06
2023-02-11T14:09:45.185Z,101894.81
2023-02-11T14:13:27.271Z,101895.47
2023-02-11T14:17:02.374Z,101884.47
2023-02-11T14:20:37.311Z,101880.00
2023-02-11T14:23:47.190Z,101875.22
2023-02-11T14:27:14.217Z,101891.94
2023-02-11T14:30:39.414Z,101888.97
2023-02-11T14:34:15.257Z,101905.47
2023-02-11T14:38:03.406Z,101908.09
2023-02-11T14:41:22.916Z,101911.09
2023-02-11T14:44:40.205Z,101907.47
2023-02-11T14:47:48.918Z,101908.31
2023-02-11T14:51:15.486Z,101910.44
2023-02-11T14:54:29.359Z,101896.94
2023-02-11T14:57:44.284Z,101882.19
2023-02-11T15:01:04.344Z,101898.66
2023-02-11T15:04:43.413Z,101891.37
2023-02-11T15:07:55.017Z,101886.81
2023-02-11T15:11:07.423Z,101872.44
2023-02-11T15:14:28.424Z,101873.87
2023-02-11T15:17:38.471Z,101864.19
2023-02-11T15:21:00.248Z,101860.19
2023-02-11T15:24:35.381Z,101854.75
2023-02-11T15:27:49.597Z,101858.84
2023-02-11T15:31:10.322Z,101859.50
2023-02-11T15:34:30.286Z,101854.41
2023-02-11T15:37:50.564Z,101850.25
2023-02-11T15:41:07.543Z,101842.19
2023-02-11T15:44:35.266Z,101835.62
2023-02-11T15:47:51.502Z,101816.37
2023-02-11T15:54:57.937Z,101832.03
2023-02-11T15:58:10.310Z,101832.03
2023-02-11T16:01:18.896Z,101833.56
2023-02-11T16:04:28.085Z,101832.53
2023-02-11T16:07:49.891Z,101823.56
2023-02-11T16:11:05.569Z,101812.56
2023-02-11T16:14:34.838Z,101820.53
2023-02-11T16:17:44.741Z,101810.44
2023-02-11T16:20:54.856Z,101805.16
2023-02-11T16:24:10.854Z,101808.22
2023-02-11T16:27:32.866Z,101806.31
2023-02-11T16:30:42.958Z,101805.72
2023-02-11T16:33:58.861Z,101798.97
2023-02-11T16:37:10.825Z,101799.06
2023-02-11T16:40:19.897Z,101820.06
2023-02-11T16:43:28.114Z,101820.63
2023-02-11T16:46:37.982Z,101822.94
2023-02-11T16:49:48.857Z,101826.34
2023-02-11T16:52:58.989Z,101807.84
2023-02-11T16:56:23.004Z,101797.06
2023-02-11T16:59:25.632Z,101795.25
2023-02-11T17:02:43.901Z,101809.66
2023-02-11T17:05:55.588Z,101811.47
2023-02-11T17:09:04.803Z,101812.63
2023-02-11T17:12:19.891Z,101809.09
2023-02-11T17:15:28.431Z,101807.88
2023-02-11T17:18:42.864Z,101810.06
2023-02-11T17:21:52.789Z,101774.94
2023-02-11T17:25:01.884Z,101803.94
2023-02-11T17:28:16.981Z,101804.41
2023-02-11T17:31:19.509Z,101815.09
2023-02-11T17:34:34.847Z,101805.75
2023-02-11T17:37:43.672Z,101825.78
2023-02-11T17:40:51.880Z,101825.03
2023-02-11T17:44:07.906Z,101821.75
2023-02-11T17:47:16.829Z,101819.09
2023-02-11T17:50:28.880Z,101818.81
2023-02-11T17:53:44.185Z,101811.47
2023-02-11T17:56:59.925Z,101816.53
2023-02-11T18:00:15.913Z,101803.75
2023-02-11T18:03:18.085Z,101800.22
2023-02-11T18:06:33.940Z,101798.59
2023-02-11T18:09:38.506Z,101795.63
2023-02-11T18:12:53.889Z,101781.03
2023-02-11T18:16:07.899Z,101783.44
2023-02-11T18:19:17.421Z,101777.78
2023-02-11T18:22:25.912Z,101789.72
2023-02-11T18:25:34.933Z,101785.44
2023-02-11T18:28:46.061Z,101773.28
2023-02-11T18:31:55.980Z,101773.78
2023-02-11T18:35:04.917Z,101774.34
2023-02-11T18:38:13.875Z,101774.62
2023-02-11T18:41:22.877Z,101761.47
2023-02-11T18:44:37.937Z,101771.22
2023-02-11T18:47:46.762Z,101773.38
2023-02-11T18:51:02.893Z,101772.25
2023-02-11T18:54:18.909Z,101777.56
2023-02-11T18:57:28.537Z,101784.00
2023-02-11T19:00:46.923Z,101771.97
2023-02-11T19:03:49.354Z,101773.88
2023-02-11T19:07:03.984Z,101770.75
2023-02-11T19:10:07.033Z,101779.81
2023-02-11T19:13:21.890Z,101781.31
2023-02-11T19:16:30.006Z,101783.03
2023-02-11T19:19:44.908Z,101774.62
2023-02-11T19:22:59.979Z,101798.78
2023-02-11T19:26:08.967Z,101789.31
2023-02-11T19:29:24.938Z,101785.03
2023-02-11T19:32:37.953Z,101795.22
2023-02-11T19:35:53.317Z,101791.72
2023-02-11T19:39:10.905Z,101789.50
2023-02-11T19:42:14.594Z,101778.28
2023-02-11T19:45:28.918Z,101775.50
2023-02-11T19:48:44.911Z,101781.44
2023-02-11T19:51:47.294Z,101778.34
2023-02-11T19:55:08.942Z,101788.19
2023-02-11T19:58:11.068Z,101784.56
2023-02-11T20:01:27.998Z,101786.09
2023-02-11T20:04:43.906Z,101781.50
2023-02-11T20:07:45.749Z,101775.38
2023-02-11T20:11:00.942Z,101781.22
2023-02-11T20:14:04.025Z,101771.38
2023-02-11T20:17:18.957Z,101773.94
2023-02-11T20:20:21.189Z,101775.97
2023-02-11T20:23:37.015Z,101769.78
2023-02-11T20:26:39.039Z,101753.22
2023-02-11T20:29:54.941Z,101766.50
2023-02-11T20:32:57.500Z,101764.88
2023-02-11T20:36:17.981Z,101768.31
2023-02-11T20:39:28.967Z,101764.59
2023-02-11T20:42:38.038Z,101759.63
2023-02-11T20:45:47.081Z,101761.06
2023-02-11T20:48:56.979Z,101756.47
2023-02-11T20:52:06.004Z,101760.75
2023-02-11T20:55:28.271Z,101757.44
2023-02-11T20:58:32.070Z,101759.91
2023-02-11T21:01:50.999Z,101754.94
2023-02-11T21:04:53.077Z,101772.03
2023-02-11T21:08:07.989Z,101771.56
2023-02-11T21:11:10.133Z,101754.94
2023-02-11T21:14:27.005Z,101741.97
2023-02-11T21:17:29.218Z,101743.53
2023-02-11T21:20:44.000Z,101744.47
2023-02-11T21:24:02.971Z,101744.47
2023-02-11T21:27:11.881Z,101752.50
2023-02-11T21:30:27.963Z,101763.56
2023-02-11T21:33:36.900Z,101752.97
2023-02-11T21:36:46.071Z,101756.19
2023-02-11T21:40:01.093Z,101757.84
2023-02-11T21:43:09.932Z,101743.53
2023-02-11T21:46:21.143Z,101749.41
2023-02-11T21:49:30.100Z,101752.09
2023-02-11T21:52:38.969Z,101757.38
2023-02-11T21:56:10.049Z,101741.81
2023-02-11T21:59:12.945Z,101732.25
2023-02-11T22:02:27.986Z,101725.78
2023-02-11T22:05:29.788Z,101720.16
2023-02-11T22:08:45.981Z,101731.78
2023-02-11T22:11:55.045Z,101729.13
2023-02-11T22:15:11.018Z,101746.31
2023-02-11T22:18:13.236Z,101747.63
2023-02-11T22:21:29.007Z,101749.66
2023-02-11T22:24:37.015Z,101744.22
2023-02-11T22:27:53.010Z,101733.03
2023-02-11T22:31:01.707Z,101750.97
2023-02-11T22:34:17.003Z,101751.28
2023-02-11T22:37:18.853Z,101744.09
2023-02-11T22:40:34.007Z,101749.63
2023-02-11T22:43:36.921Z,101759.44
2023-02-11T22:46:52.011Z,101779.75
2023-02-11T22:49:53.933Z,101761.91
2023-02-11T22:53:08.982Z,101750.56
2023-02-11T22:56:17.761Z,101761.91
2023-02-11T22:59:36.034Z,101758.28
2023-02-11T23:02:51.114Z,101760.28
2023-02-11T23:05:53.171Z,101762.53
2023-02-11T23:09:14.020Z,101776.63
2023-02-11T23:12:22.994Z,101780.78
2023-02-11T23:15:31.959Z,101783.56
2023-02-11T23:18:42.003Z,101781.12
2023-02-11T23:21:51.616Z,101787.75
2023-02-11T23:25:00.014Z,101778.75
2023-02-11T23:28:15.048Z,101761.47
2023-02-11T23:31:20.242Z,101763.25
2023-02-11T23:34:35.050Z,101768.41
2023-02-11T23:37:36.883Z,101761.22
2023-02-11T23:40:53.050Z,101765.87
2023-02-11T23:44:02.131Z,101741.59
2023-02-11T23:47:17.041Z,101759.94
2023-02-11T23:50:32.065Z,101759.03
2023-02-11T23:53:33.984Z,101753.59
2023-02-11T23:56:56.046Z,101747.50
